createdAt,value
2018-02-10T14:11:53.885Z,97238.87
2018-02-10T14:14:21.405Z,97240.64
2018-02-10T14:16:48.871Z,97242.78
2018-02-10T14:19:16.388Z,97245.81
2018-02-10T14:21:43.885Z,97244.28
2018-02-10T14:24:11.336Z,97242.71
2018-02-10T14:26:38.826Z,97245.27
2018-02-10T14:29:06.334Z,97246.86
2018-02-10T14:31:33.828Z,97253.41
2018-02-10T14:34:01.334Z,97244.77
2018-02-10T14:36:28.823Z,97249.54
2018-02-10T14:38:56.289Z,97239.66
2018-02-10T14:41:23.821Z,97241.24
2018-02-10T14:43:51.333Z,97245.41
2018-02-10T14:46:18.843Z,97248.42
2018-02-10T14:48:46.342Z,97240.50
2018-02-10T14:51:13.777Z,97233.02
2018-02-10T14:53:41.234Z,97240.22
2018-02-10T14:56:08.721Z,97234.22
2018-02-10T14:58:36.144Z,97229.81
2018-02-10T15:01:03.677Z,97224.89
2018-02-10T15:03:31.113Z,97217.05
2018-02-10T15:05:58.589Z,97199.88
2018-02-10T15:08:26.097Z,97209.93
2018-02-10T15:10:53.632Z,97201.66
2018-02-10T15:13:21.149Z,97201.45
2018-02-10T15:15:48.631Z,97205.09
2018-02-10T15:18:16.090Z,97213.95
2018-02-10T15:20:43.609Z,97215.75
2018-02-10T15:23:11.122Z,97215.78
2018-02-10T15:25:38.626Z,97217.30
2018-02-10T15:28:06.106Z,97213.91
2018-02-10T15:30:45.244Z,97212.38
2018-02-10T15:33:24.446Z,97207.38
2018-02-10T15:35:51.901Z,97210.06
2018-02-10T15:38:19.452Z,97207.92
2018-02-10T15:40:46.949Z,97209.02
2018-02-10T15:43:14.441Z,97210.19
2018-02-10T15:45:41.909Z,97205.73
2018-02-10T15:48:09.398Z,97215.40
2018-02-10T15:50:36.894Z,97214.11
2018-02-10T15:53:04.370Z,97219.53
2018-02-10T15:55:31.818Z,97214.25
2018-02-10T15:57:59.240Z,97217.13
2018-02-10T16:00:26.741Z,97206.69
2018-02-10T16:02:54.229Z,97212.45
2018-02-10T16:05:21.637Z,97207.76
2018-02-10T16:07:49.084Z,97206.47
2018-02-10T16:10:16.556Z,97201.49
2018-02-10T16:12:44.069Z,97207.75
2018-02-10T16:15:11.523Z,97206.82
2018-02-10T16:17:38.986Z,97201.36
2018-02-10T16:20:06.505Z,97199.04
2018-02-10T16:22:34.034Z,97193.48
2018-02-10T16:25:01.536Z,97194.13
2018-02-10T16:27:29.221Z,97191.98
2018-02-10T16:29:57.661Z,97193.92
2018-02-10T16:32:25.102Z,97200.55
2018-02-10T16:34:52.599Z,97200.55
2018-02-10T16:37:20.405Z,97197.54
2018-02-10T16:39:47.871Z,97200.02
2018-02-10T16:42:15.357Z,97210.66
2018-02-10T16:44:42.847Z,97208.75
2018-02-10T16:47:10.334Z,97212.77
2018-02-10T16:49:37.829Z,97217.59
2018-02-10T16:52:05.284Z,97217.63
2018-02-10T16:54:32.687Z,97228.25
2018-02-10T16:57:00.195Z,97226.23
2018-02-10T16:59:27.725Z,97223.23
2018-02-10T17:01:55.253Z,97223.27
2018-02-10T17:04:22.744Z,97227.36
2018-02-10T17:06:50.135Z,97220.75
2018-02-10T17:09:17.609Z,97230.34
2018-02-10T17:11:45.066Z,97232.23
2018-02-10T17:14:12.581Z,97232.56
2018-02-10T17:16:40.043Z,97236.45
2018-02-10T17:19:07.503Z,97243.20
2018-02-10T17:21:34.965Z,97251.78
2018-02-10T17:24:02.392Z,97254.63
2018-02-10T17:26:29.815Z,97251.58
2018-02-10T17:28:57.295Z,97252.62
2018-02-10T17:31:24.759Z,97250.08
2018-02-10T17:33:52.252Z,97260.04
2018-02-10T17:36:19.737Z,97263.64
2018-02-10T17:38:47.188Z,97250.66
2018-02-10T17:41:14.650Z,97253.42
2018-02-10T17:43:42.216Z,97258.19
2018-02-10T17:46:09.611Z,97249.78
2018-02-10T17:48:37.167Z,97251.41
2018-02-10T17:51:04.683Z,97253.12
2018-02-10T17:53:32.129Z,97260.33
2018-02-10T17:55:59.745Z,97251.41
2018-02-10T17:58:27.222Z,97244.34
2018-02-10T18:00:54.698Z,97246.05
2018-02-10T18:03:22.162Z,97248.69
2018-02-10T18:05:49.624Z,97256.55
2018-02-10T18:08:17.093Z,97258.31
2018-02-10T18:10:44.546Z,97249.52
2018-02-10T18:13:12.042Z,97249.59
2018-02-10T18:15:39.561Z,97248.80
2018-02-10T18:18:07.049Z,97245.28
2018-02-10T18:20:34.551Z,97241.94
2018-02-10T18:23:02.053Z,97247.42
2018-02-10T18:25:29.817Z,97248.38
2018-02-10T18:27:57.321Z,97251.05
2018-02-10T18:30:24.898Z,97248.84
2018-02-10T18:32:52.492Z,97255.82
2018-02-10T18:35:20.005Z,97261.17
2018-02-10T18:37:47.606Z,97250.67
2018-02-10T18:40:15.138Z,97245.83
2018-02-10T18:42:42.715Z,97240.26
2018-02-10T18:45:10.218Z,97241.52
2018-02-10T18:47:37.749Z,97241.98
2018-02-10T18:50:05.214Z,97248.73
2018-02-10T18:52:32.738Z,97244.83
2018-02-10T18:55:00.246Z,97243.99
2018-02-10T18:57:27.707Z,97235.30
2018-02-10T18:59:55.142Z,97236.67
2018-02-10T19:02:22.709Z,97238.84
2018-02-10T19:04:50.232Z,97228.85
2018-02-10T19:07:17.626Z,97228.02
2018-02-10T19:09:46.981Z,97230.45
2018-02-10T19:12:14.455Z,97235.86
2018-02-10T19:14:42.018Z,97234.44
2018-02-10T19:17:09.552Z,97226.40
2018-02-10T19:19:37.092Z,97233.84
2018-02-10T19:22:04.562Z,97234.00
2018-02-10T19:24:32.149Z,97225.50
2018-02-10T19:26:59.758Z,97230.61
2018-02-10T19:29:27.259Z,97235.75
2018-02-10T19:31:54.785Z,97237.35
2018-02-10T19:34:22.595Z,97234.53
2018-02-10T19:36:50.091Z,97238.50
2018-02-10T19:39:17.694Z,97242.48
2018-02-10T19:41:45.161Z,97255.17
2018-02-10T19:44:12.661Z,97252.47
2018-02-10T19:46:40.137Z,97247.13
2018-02-10T19:49:07.691Z,97242.63
2018-02-10T19:51:35.137Z,97235.98
2018-02-10T19:54:02.593Z,97239.18
2018-02-10T19:56:30.132Z,97243.00
2018-02-10T19:58:57.666Z,97244.70
2018-02-10T20:01:25.149Z,97245.89
2018-02-10T20:03:52.718Z,97248.74
2018-02-10T20:06:20.577Z,97248.78
2018-02-10T20:08:48.087Z,97243.55
2018-02-10T20:11:15.697Z,97252.71
2018-02-10T20:13:43.231Z,97252.33
2018-02-10T20:16:10.696Z,97246.03
2018-02-10T20:18:38.159Z,97242.73
2018-02-10T20:21:05.690Z,97250.37
2018-02-10T20:23:33.176Z,97240.92
2018-02-10T20:26:00.662Z,97241.04
2018-02-10T20:28:28.153Z,97243.41
2018-02-10T20:30:55.649Z,97241.96
2018-02-10T20:33:23.139Z,97240.82
2018-02-10T20:35:50.635Z,97246.42
2018-02-10T20:38:18.152Z,97244.25
2018-02-10T20:40:45.658Z,97248.84
2018-02-10T20:43:13.068Z,97251.13
2018-02-10T20:45:40.480Z,97247.58
2018-02-10T20:48:07.980Z,97248.50
2018-02-10T20:50:35.622Z,97247.62
2018-02-10T20:53:03.177Z,97244.19
2018-02-10T20:55:30.682Z,97239.04
2018-02-10T20:57:58.158Z,97237.28
2018-02-10T21:00:25.644Z,97239.30
2018-02-10T21:02:53.178Z,97240.14
2018-02-10T21:05:20.770Z,97240.22
2018-02-10T21:07:48.318Z,97234.95
2018-02-10T21:10:15.812Z,97240.08
2018-02-10T21:12:43.356Z,97234.78
2018-02-10T21:15:10.819Z,97228.92
2018-02-10T21:17:38.302Z,97232.65
2018-02-10T21:20:05.696Z,97226.70
2018-02-10T21:22:33.182Z,97232.36
2018-02-10T21:25:00.649Z,97230.38
2018-02-10T21:27:28.138Z,97226.18
2018-02-10T21:29:55.604Z,97219.28
2018-02-10T21:32:23.115Z,97218.70
2018-02-10T21:34:50.556Z,97220.54
2018-02-10T21:37:18.028Z,97219.12
2018-02-10T21:39:45.500Z,97206.87
2018-02-10T21:42:12.969Z,97207.66
2018-02-10T21:44:40.532Z,97197.38
2018-02-10T21:47:08.157Z,97200.05
2018-02-10T21:49:35.780Z,97199.70
2018-02-10T21:52:03.280Z,97202.88
2018-02-10T21:54:30.898Z,97199.53
2018-02-10T21:56:58.413Z,97197.44
2018-02-10T21:59:25.961Z,97196.94
2018-02-10T22:01:53.346Z,97193.52
2018-02-10T22:04:20.842Z,97193.20
2018-02-10T22:06:48.351Z,97192.00
2018-02-10T22:09:15.842Z,97180.87
2018-02-10T22:11:43.339Z,97176.03
2018-02-10T22:14:10.742Z,97179.88
2018-02-10T22:16:38.193Z,97184.30
2018-02-10T22:19:05.715Z,97184.52
2018-02-10T22:21:33.232Z,97194.81
2018-02-10T22:24:00.766Z,97194.02
2018-02-10T22:26:28.230Z,97183.14
2018-02-10T22:28:55.665Z,97177.41
2018-02-10T22:31:23.230Z,97170.06
2018-02-10T22:33:50.672Z,97175.41
2018-02-10T22:36:18.150Z,97169.80
2018-02-10T22:38:45.663Z,97162.86
2018-02-10T22:41:13.122Z,97168.05
2018-02-10T22:43:40.789Z,97163.48
2018-02-10T22:46:08.295Z,97150.97
2018-02-10T22:48:35.823Z,97143.27
2018-02-10T22:51:03.280Z,97147.52
2018-02-10T22:53:30.793Z,97136.91
2018-02-10T22:55:58.274Z,97139.94
2018-02-10T22:58:25.749Z,97135.18
2018-02-10T23:00:54.073Z,97125.98
2018-02-10T23:03:21.616Z,97124.02
2018-02-10T23:05:49.152Z,97118.99
2018-02-10T23:08:16.603Z,97121.34
2018-02-10T23:10:44.039Z,97124.61
2018-02-10T23:13:11.559Z,97130.09
2018-02-10T23:15:39.160Z,97117.73
2018-02-10T23:18:06.591Z,97118.36
2018-02-10T23:20:34.092Z,97116.02
2018-02-10T23:23:01.632Z,97115.93
2018-02-10T23:25:29.130Z,97118.23
2018-02-10T23:27:56.627Z,97117.93
2018-02-10T23:30:24.148Z,97123.12
2018-02-10T23:32:51.657Z,97121.13
2018-02-10T23:35:31.081Z,97107.91
2018-02-10T23:37:58.596Z,97102.97
2018-02-10T23:40:26.168Z,97106.48
2018-02-10T23:42:53.642Z,97108.58
2018-02-10T23:45:21.239Z,97102.80
2018-02-10T23:47:48.738Z,97098.16
2018-02-10T23:50:16.393Z,97089.84
2018-02-10T23:52:43.896Z,97086.20
2018-02-10T23:55:11.395Z,97075.50
2018-02-10T23:57:38.887Z,97076.80
